sensor_id;sensor_type;location;lat;lon;timestamp;temperature;humidity
18163;DHT22;9206;50.994;4.538;2023-06-04T00:01:40;12.10;99.90
18163;DHT22;9206;50.994;4.538;2023-06-04T00:04:27;12.10;99.90
18163;DHT22;9206;50.994;4.538;2023-06-04T00:07:17;12.00;99.90
18163;DHT22;9206;50.994;4.538;2023-06-04T00:10:10;12.00;99.90
18163;DHT22;9206;50.994;4.538;2023-06-04T00:13:00;12.00;99.90
18163;DHT22;9206;50.994;4.538;2023-06-04T00:15:49;12.00;99.90
18163;DHT22;9206;50.994;4.538;2023-06-04T00:18:40;11.90;99.90
18163;DHT22;9206;50.994;4.538;2023-06-04T00:21:33;11.90;99.90
18163;DHT22;9206;50.994;4.538;2023-06-04T00:24:33;11.90;99.90
18163;DHT22;9206;50.994;4.538;2023-06-04T00:27:37;11.80;99.90
18163;DHT22;9206;50.994;4.538;2023-06-04T00:30:26;11.70;99.90
18163;DHT22;9206;50.994;4.538;2023-06-04T00:33:17;11.80;99.90
18163;DHT22;9206;50.994;4.538;2023-06-04T00:36:06;11.70;99.90
18163;DHT22;9206;50.994;4.538;2023-06-04T00:38:59;11.70;99.90
18163;DHT22;9206;50.994;4.538;2023-06-04T00:41:47;11.60;99.90
18163;DHT22;9206;50.994;4.538;2023-06-04T00:44:37;11.60;99.90
18163;DHT22;9206;50.994;4.538;2023-06-04T00:47:33;11.60;99.90
18163;DHT22;9206;50.994;4.538;2023-06-04T00:50:24;11.50;99.90
18163;DHT22;9206;50.994;4.538;2023-06-04T00:53:17;11.50;99.90
18163;DHT22;9206;50.994;4.538;2023-06-04T00:56:05;11.50;99.90
18163;DHT22;9206;50.994;4.538;2023-06-04T00:58:55;11.40;99.90
18163;DHT22;9206;50.994;4.538;2023-06-04T01:01:48;11.40;99.90
18163;DHT22;9206;50.994;4.538;2023-06-04T01:04:44;11.40;99.90
18163;DHT22;9206;50.994;4.538;2023-06-04T01:07:36;11.40;99.90
18163;DHT22;9206;50.994;4.538;2023-06-04T01:10:31;11.40;99.90
18163;DHT22;9206;50.994;4.538;2023-06-04T01:13:22;11.30;99.90
18163;DHT22;9206;50.994;4.538;2023-06-04T01:16:17;11.30;99.90
18163;DHT22;9206;50.994;4.538;2023-06-04T01:19:11;11.30;99.90
18163;DHT22;9206;50.994;4.538;2023-06-04T01:22:11;11.30;99.90
18163;DHT22;9206;50.994;4.538;2023-06-04T01:25:21;11.30;99.90
18163;DHT22;9206;50.994;4.538;2023-06-04T01:28:12;11.30;99.90
18163;DHT22;9206;50.994;4.538;2023-06-04T01:31:05;11.30;99.90
18163;DHT22;9206;50.994;4.538;2023-06-04T01:33:59;11.30;99.90
18163;DHT22;9206;50.994;4.538;2023-06-04T01:37:10;11.30;99.90
18163;DHT22;9206;50.994;4.538;2023-06-04T01:39:58;11.30;99.90
18163;DHT22;9206;50.994;4.538;2023-06-04T01:42:50;11.30;99.90
18163;DHT22;9206;50.994;4.538;2023-06-04T01:45:39;11.30;99.90
18163;DHT22;9206;50.994;4.538;2023-06-04T01:48:37;11.20;99.90
18163;DHT22;9206;50.994;4.538;2023-06-04T01:51:27;11.20;99.90
18163;DHT22;9206;50.994;4.538;2023-06-04T01:54:21;11.20;99.90
18163;DHT22;9206;50.994;4.538;2023-06-04T01:57:14;11.20;99.90
18163;DHT22;9206;50.994;4.538;2023-06-04T02:00:08;11.10;99.90
18163;DHT22;9206;50.994;4.538;2023-06-04T02:03:02;11.10;99.90
18163;DHT22;9206;50.994;4.538;2023-06-04T02:05:56;11.10;99.90
18163;DHT22;9206;50.994;4.538;2023-06-04T02:08:43;11.00;99.90
18163;DHT22;9206;50.994;4.538;2023-06-04T02:11:37;11.00;99.90
18163;DHT22;9206;50.994;4.538;2023-06-04T02:14:43;11.00;99.90
18163;DHT22;9206;50.994;4.538;2023-06-04T02:17:33;11.00;99.90
18163;DHT22;9206;50.994;4.538;2023-06-04T02:20:26;11.00;99.90
18163;DHT22;9206;50.994;4.538;2023-06-04T02:23:17;11.00;99.90
18163;DHT22;9206;50.994;4.538;2023-06-04T02:26:05;11.00;99.90
18163;DHT22;9206;50.994;4.538;2023-06-04T02:28:56;11.00;99.90
18163;DHT22;9206;50.994;4.538;2023-06-04T02:31:58;11.00;99.90
18163;DHT22;9206;50.994;4.538;2023-06-04T02:34:47;10.90;99.90
18163;DHT22;9206;50.994;4.538;2023-06-04T02:37:35;11.00;99.90
18163;DHT22;9206;50.994;4.538;2023-06-04T02:40:24;11.00;99.90
18163;DHT22;9206;50.994;4.538;2023-06-04T02:43:14;11.00;99.90
18163;DHT22;9206;50.994;4.538;2023-06-04T02:46:16;10.90;99.90
18163;DHT22;9206;50.994;4.538;2023-06-04T02:49:07;10.90;99.90
18163;DHT22;9206;50.994;4.538;2023-06-04T02:51:56;10.90;99.90
18163;DHT22;9206;50.994;4.538;2023-06-04T02:54:47;10.90;99.90
18163;DHT22;9206;50.994;4.538;2023-06-04T02:57:34;10.80;99.90
18163;DHT22;9206;50.994;4.538;2023-06-04T03:00:36;10.80;99.90
18163;DHT22;9206;50.994;4.538;2023-06-04T03:03:44;10.70;99.90
18163;DHT22;9206;50.994;4.538;2023-06-04T03:06:35;10.80;99.90
18163;DHT22;9206;50.994;4.538;2023-06-04T03:09:29;10.70;99.90
18163;DHT22;9206;50.994;4.538;2023-06-04T03:12:19;10.70;99.90
18163;DHT22;9206;50.994;4.538;2023-06-04T03:15:12;10.70;99.90
18163;DHT22;9206;50.994;4.538;2023-06-04T03:18:01;10.60;99.90
18163;DHT22;9206;50.994;4.538;2023-06-04T03:20:51;10.60;99.90
18163;DHT22;9206;50.994;4.538;2023-06-04T03:23:39;10.60;99.90
18163;DHT22;9206;50.994;4.538;2023-06-04T03:26:36;10.70;99.90
18163;DHT22;9206;50.994;4.538;2023-06-04T03:29:29;10.60;99.90
18163;DHT22;9206;50.994;4.538;2023-06-04T03:32:18;10.50;99.90
18163;DHT22;9206;50.994;4.538;2023-06-04T03:35:10;10.40;99.90
18163;DHT22;9206;50.994;4.538;2023-06-04T03:38:07;10.40;99.90
18163;DHT22;9206;50.994;4.538;2023-06-04T03:41:00;10.30;99.90
18163;DHT22;9206;50.994;4.538;2023-06-04T03:43:50;10.30;99.90
18163;DHT22;9206;50.994;4.538;2023-06-04T03:46:42;10.20;99.90
18163;DHT22;9206;50.994;4.538;2023-06-04T03:49:32;10.20;99.90
18163;DHT22;9206;50.994;4.538;2023-06-04T03:52:28;10.20;99.90
18163;DHT22;9206;50.994;4.538;2023-06-04T03:55:16;10.20;99.90
18163;DHT22;9206;50.994;4.538;2023-06-04T03:58:09;10.20;99.90
18163;DHT22;9206;50.994;4.538;2023-06-04T04:01:02;10.20;99.90
18163;DHT22;9206;50.994;4.538;2023-06-04T04:03:54;10.20;99.90
18163;DHT22;9206;50.994;4.538;2023-06-04T04:06:59;10.20;99.90
18163;DHT22;9206;50.994;4.538;2023-06-04T04:09:48;10.20;99.90
18163;DHT22;9206;50.994;4.538;2023-06-04T04:12:38;10.20;99.90
18163;DHT22;9206;50.994;4.538;2023-06-04T04:15:26;10.30;99.90
18163;DHT22;9206;50.994;4.538;2023-06-04T04:18:22;10.30;99.90
18163;DHT22;9206;50.994;4.538;2023-06-04T04:21:10;10.40;99.90
18163;DHT22;9206;50.994;4.538;2023-06-04T04:23:58;10.40;99.90
18163;DHT22;9206;50.994;4.538;2023-06-04T04:26:58;10.50;99.90
18163;DHT22;9206;50.994;4.538;2023-06-04T04:29:55;10.60;99.90
18163;DHT22;9206;50.994;4.538;2023-06-04T04:32:48;10.60;99.90
18163;DHT22;9206;50.994;4.538;2023-06-04T04:35:38;10.70;99.90
18163;DHT22;9206;50.994;4.538;2023-06-04T04:38:40;10.70;99.90
18163;DHT22;9206;50.994;4.538;2023-06-04T04:41:32;10.90;99.90
18163;DHT22;9206;50.994;4.538;2023-06-04T04:44:28;10.90;99.90
18163;DHT22;9206;50.994;4.538;2023-06-04T04:47:18;11.00;99.90
18163;DHT22;9206;50.994;4.538;2023-06-04T04:50:06;11.10;99.90
18163;DHT22;9206;50.994;4.538;2023-06-04T04:53:01;11.10;99.90
18163;DHT22;9206;50.994;4.538;2023-06-04T04:55:51;11.20;99.90
18163;DHT22;9206;50.994;4.538;2023-06-04T04:58:39;11.30;99.90
18163;DHT22;9206;50.994;4.538;2023-06-04T05:01:29;11.40;99.90
18163;DHT22;9206;50.994;4.538;2023-06-04T05:04:23;11.50;99.90
18163;DHT22;9206;50.994;4.538;2023-06-04T05:07:17;11.60;99.90
18163;DHT22;9206;50.994;4.538;2023-06-04T05:10:10;11.70;99.90
18163;DHT22;9206;50.994;4.538;2023-06-04T05:13:06;11.80;99.90
18163;DHT22;9206;50.994;4.538;2023-06-04T05:15:54;12.00;99.90
18163;DHT22;9206;50.994;4.538;2023-06-04T05:18:42;12.10;99.90
18163;DHT22;9206;50.994;4.538;2023-06-04T05:21:31;12.20;99.90
18163;DHT22;9206;50.994;4.538;2023-06-04T05:24:19;12.30;99.90
18163;DHT22;9206;50.994;4.538;2023-06-04T05:27:09;12.40;99.90
18163;DHT22;9206;50.994;4.538;2023-06-04T05:30:03;12.50;99.90
18163;DHT22;9206;50.994;4.538;2023-06-04T05:33:08;12.70;99.90
18163;DHT22;9206;50.994;4.538;2023-06-04T05:36:04;12.80;99.90
18163;DHT22;9206;50.994;4.538;2023-06-04T05:38:57;13.00;99.90
18163;DHT22;9206;50.994;4.538;2023-06-04T05:41:46;13.10;99.90
18163;DHT22;9206;50.994;4.538;2023-06-04T05:44:38;13.20;99.90
18163;DHT22;9206;50.994;4.538;2023-06-04T05:47:27;13.40;99.90
18163;DHT22;9206;50.994;4.538;2023-06-04T05:50:19;13.60;99.90
18163;DHT22;9206;50.994;4.538;2023-06-04T05:53:09;13.80;99.90
18163;DHT22;9206;50.994;4.538;2023-06-04T05:55:57;13.90;99.90
18163;DHT22;9206;50.994;4.538;2023-06-04T05:58:51;14.20;99.90
18163;DHT22;9206;50.994;4.538;2023-06-04T06:01:43;14.40;99.90
18163;DHT22;9206;50.994;4.538;2023-06-04T06:07:18;16.00;99.90
18163;DHT22;9206;50.994;4.538;2023-06-04T06:10:07;16.90;99.90
18163;DHT22;9206;50.994;4.538;2023-06-04T06:12:54;17.80;99.90
18163;DHT22;9206;50.994;4.538;2023-06-04T06:15:50;18.70;99.90
18163;DHT22;9206;50.994;4.538;2023-06-04T06:18:46;19.50;99.90
18163;DHT22;9206;50.994;4.538;2023-06-04T06:21:35;20.10;99.90
18163;DHT22;9206;50.994;4.538;2023-06-04T06:25:55;20.30;99.90
18163;DHT22;9206;50.994;4.538;2023-06-04T06:34:09;20.60;99.90
18163;DHT22;9206;50.994;4.538;2023-06-04T06:37:25;20.90;99.90
18163;DHT22;9206;50.994;4.538;2023-06-04T06:40:51;21.30;99.90
18163;DHT22;9206;50.994;4.538;2023-06-04T06:43:42;21.80;99.90
18163;DHT22;9206;50.994;4.538;2023-06-04T06:46:34;21.90;99.90
18163;DHT22;9206;50.994;4.538;2023-06-04T06:49:25;22.20;99.90
18163;DHT22;9206;50.994;4.538;2023-06-04T06:52:16;22.20;99.90
18163;DHT22;9206;50.994;4.538;2023-06-04T06:55:17;22.30;99.90
18163;DHT22;9206;50.994;4.538;2023-06-04T06:58:07;22.90;99.90
18163;DHT22;9206;50.994;4.538;2023-06-04T07:00:57;23.30;99.90
18163;DHT22;9206;50.994;4.538;2023-06-04T07:03:45;23.30;99.90
18163;DHT22;9206;50.994;4.538;2023-06-04T07:06:40;23.50;99.90
18163;DHT22;9206;50.994;4.538;2023-06-04T07:09:28;23.90;99.90
18163;DHT22;9206;50.994;4.538;2023-06-04T07:12:38;24.40;99.90
18163;DHT22;9206;50.994;4.538;2023-06-04T07:15:32;24.20;99.90
18163;DHT22;9206;50.994;4.538;2023-06-04T07:18:39;24.50;99.90
18163;DHT22;9206;50.994;4.538;2023-06-04T07:21:27;24.50;99.90
18163;DHT22;9206;50.994;4.538;2023-06-04T07:24:23;25.10;99.90
18163;DHT22;9206;50.994;4.538;2023-06-04T07:30:16;25.90;99.90
18163;DHT22;9206;50.994;4.538;2023-06-04T07:36:32;25.90;99.90
18163;DHT22;9206;50.994;4.538;2023-06-04T07:43:02;25.60;99.90
18163;DHT22;9206;50.994;4.538;2023-06-04T07:45:50;26.30;99.90
18163;DHT22;9206;50.994;4.538;2023-06-04T07:48:47;26.60;99.90
18163;DHT22;9206;50.994;4.538;2023-06-04T07:51:37;27.30;99.90
18163;DHT22;9206;50.994;4.538;2023-06-04T07:54:25;27.60;99.90
18163;DHT22;9206;50.994;4.538;2023-06-04T07:57:14;28.20;99.90
18163;DHT22;9206;50.994;4.538;2023-06-04T08:00:18;28.50;99.30
18163;DHT22;9206;50.994;4.538;2023-06-04T08:06:51;28.10;99.80
18163;DHT22;9206;50.994;4.538;2023-06-04T08:09:58;28.50;98.10
18163;DHT22;9206;50.994;4.538;2023-06-04T08:12:52;28.30;98.50
18163;DHT22;9206;50.994;4.538;2023-06-04T08:15:48;28.90;96.20
18163;DHT22;9206;50.994;4.538;2023-06-04T08:18:41;28.20;93.20
18163;DHT22;9206;50.994;4.538;2023-06-04T08:21:31;26.70;94.30
18163;DHT22;9206;50.994;4.538;2023-06-04T08:24:20;26.00;94.80
18163;DHT22;9206;50.994;4.538;2023-06-04T08:27:08;26.40;96.10
18163;DHT22;9206;50.994;4.538;2023-06-04T08:29:57;27.20;95.20
18163;DHT22;9206;50.994;4.538;2023-06-04T08:32:57;27.50;94.70
18163;DHT22;9206;50.994;4.538;2023-06-04T08:35:46;28.00;94.40
18163;DHT22;9206;50.994;4.538;2023-06-04T08:38:34;27.80;93.90
18163;DHT22;9206;50.994;4.538;2023-06-04T08:41:28;27.40;92.50
18163;DHT22;9206;50.994;4.538;2023-06-04T08:44:22;27.00;93.60
18163;DHT22;9206;50.994;4.538;2023-06-04T08:47:12;26.00;93.00
18163;DHT22;9206;50.994;4.538;2023-06-04T08:50:07;25.80;93.70
18163;DHT22;9206;50.994;4.538;2023-06-04T08:53:05;26.30;95.00
18163;DHT22;9206;50.994;4.538;2023-06-04T08:56:07;27.20;94.10
18163;DHT22;9206;50.994;4.538;2023-06-04T08:58:59;28.00;93.30
18163;DHT22;9206;50.994;4.538;2023-06-04T09:02:02;28.10;93.50
18163;DHT22;9206;50.994;4.538;2023-06-04T09:05:52;28.00;92.30
18163;DHT22;9206;50.994;4.538;2023-06-04T09:08:47;27.60;91.40
18163;DHT22;9206;50.994;4.538;2023-06-04T09:11:41;27.50;91.50
18163;DHT22;9206;50.994;4.538;2023-06-04T09:14:35;27.20;91.50
18163;DHT22;9206;50.994;4.538;2023-06-04T09:17:29;27.20;91.90
18163;DHT22;9206;50.994;4.538;2023-06-04T09:20:24;26.70;91.50
18163;DHT22;9206;50.994;4.538;2023-06-04T09:23:17;26.40;92.10
18163;DHT22;9206;50.994;4.538;2023-06-04T09:26:19;26.70;92.10
18163;DHT22;9206;50.994;4.538;2023-06-04T09:29:09;26.80;91.50
18163;DHT22;9206;50.994;4.538;2023-06-04T09:32:00;26.70;90.40
18163;DHT22;9206;50.994;4.538;2023-06-04T09:35:07;26.50;91.40
18163;DHT22;9206;50.994;4.538;2023-06-04T09:38:48;27.00;91.20
18163;DHT22;9206;50.994;4.538;2023-06-04T09:41:43;28.50;93.50
18163;DHT22;9206;50.994;4.538;2023-06-04T09:44:42;29.30;91.50
18163;DHT22;9206;50.994;4.538;2023-06-04T09:47:39;30.20;92.30
18163;DHT22;9206;50.994;4.538;2023-06-04T09:50:33;29.90;91.20
18163;DHT22;9206;50.994;4.538;2023-06-04T09:53:24;29.80;90.90
18163;DHT22;9206;50.994;4.538;2023-06-04T09:56:17;29.60;89.80
18163;DHT22;9206;50.994;4.538;2023-06-04T09:59:08;28.60;87.70
18163;DHT22;9206;50.994;4.538;2023-06-04T10:01:59;28.80;90.70
18163;DHT22;9206;50.994;4.538;2023-06-04T10:04:50;28.40;87.20
18163;DHT22;9206;50.994;4.538;2023-06-04T10:07:46;28.00;87.90
18163;DHT22;9206;50.994;4.538;2023-06-04T10:10:38;28.80;92.90
18163;DHT22;9206;50.994;4.538;2023-06-04T10:13:44;29.50;90.80
18163;DHT22;9206;50.994;4.538;2023-06-04T10:16:33;29.10;90.60
18163;DHT22;9206;50.994;4.538;2023-06-04T10:19:22;29.10;88.00
18163;DHT22;9206;50.994;4.538;2023-06-04T10:22:18;29.40;89.50
18163;DHT22;9206;50.994;4.538;2023-06-04T10:25:13;29.80;89.10
18163;DHT22;9206;50.994;4.538;2023-06-04T10:28:20;30.80;89.40
18163;DHT22;9206;50.994;4.538;2023-06-04T10:36:23;30.30;85.10
18163;DHT22;9206;50.994;4.538;2023-06-04T10:39:12;30.60;90.10
18163;DHT22;9206;50.994;4.538;2023-06-04T10:42:13;30.70;87.70
18163;DHT22;9206;50.994;4.538;2023-06-04T10:45:30;29.90;83.90
18163;DHT22;9206;50.994;4.538;2023-06-04T11:00:46;29.90;85.50
18163;DHT22;9206;50.994;4.538;2023-06-04T11:10:42;30.30;86.50
18163;DHT22;9206;50.994;4.538;2023-06-04T11:13:28;30.10;82.20
18163;DHT22;9206;50.994;4.538;2023-06-04T11:23:15;29.40;88.30
18163;DHT22;9206;50.994;4.538;2023-06-04T11:27:37;29.20;82.60
18163;DHT22;9206;50.994;4.538;2023-06-04T11:34:07;28.30;84.40
18163;DHT22;9206;50.994;4.538;2023-06-04T11:37:06;28.20;90.20
18163;DHT22;9206;50.994;4.538;2023-06-04T11:39:54;28.70;90.00
18163;DHT22;9206;50.994;4.538;2023-06-04T11:48:25;28.80;83.50
18163;DHT22;9206;50.994;4.538;2023-06-04T11:51:26;28.40;79.60
18163;DHT22;9206;50.994;4.538;2023-06-04T11:54:27;28.30;85.30
18163;DHT22;9206;50.994;4.538;2023-06-04T11:57:40;28.20;81.80
18163;DHT22;9206;50.994;4.538;2023-06-04T12:04:02;28.70;86.20
18163;DHT22;9206;50.994;4.538;2023-06-04T12:07:03;28.20;82.20
18163;DHT22;9206;50.994;4.538;2023-06-04T12:09:53;28.30;84.40
18163;DHT22;9206;50.994;4.538;2023-06-04T12:13:25;28.30;82.70
18163;DHT22;9206;50.994;4.538;2023-06-04T12:16:26;28.60;83.80
18163;DHT22;9206;50.994;4.538;2023-06-04T12:19:15;28.30;81.20
18163;DHT22;9206;50.994;4.538;2023-06-04T12:22:14;28.30;80.40
18163;DHT22;9206;50.994;4.538;2023-06-04T12:25:03;28.50;85.00
18163;DHT22;9206;50.994;4.538;2023-06-04T12:27:53;28.50;83.30
18163;DHT22;9206;50.994;4.538;2023-06-04T12:30:43;28.40;80.00
18163;DHT22;9206;50.994;4.538;2023-06-04T12:33:31;28.50;78.90
18163;DHT22;9206;50.994;4.538;2023-06-04T12:36:20;28.00;78.70
18163;DHT22;9206;50.994;4.538;2023-06-04T12:39:16;27.40;76.50
18163;DHT22;9206;50.994;4.538;2023-06-04T12:42:09;27.20;77.60
18163;DHT22;9206;50.994;4.538;2023-06-04T12:45:03;27.00;79.10
18163;DHT22;9206;50.994;4.538;2023-06-04T12:47:57;26.90;80.50
18163;DHT22;9206;50.994;4.538;2023-06-04T12:50:51;26.90;78.70
18163;DHT22;9206;50.994;4.538;2023-06-04T12:53:40;27.10;82.50
18163;DHT22;9206;50.994;4.538;2023-06-04T12:56:34;27.50;80.80
18163;DHT22;9206;50.994;4.538;2023-06-04T12:59:47;28.00;79.30
18163;DHT22;9206;50.994;4.538;2023-06-04T13:02:41;28.00;81.20
18163;DHT22;9206;50.994;4.538;2023-06-04T13:05:37;28.00;82.20
18163;DHT22;9206;50.994;4.538;2023-06-04T13:08:44;28.10;81.10
18163;DHT22;9206;50.994;4.538;2023-06-04T13:15:48;27.50;77.70
18163;DHT22;9206;50.994;4.538;2023-06-04T13:19:16;27.30;75.90
18163;DHT22;9206;50.994;4.538;2023-06-04T13:22:11;27.30;77.90
18163;DHT22;9206;50.994;4.538;2023-06-04T13:25:03;27.40;80.00
18163;DHT22;9206;50.994;4.538;2023-06-04T13:28:19;27.40;78.20
18163;DHT22;9206;50.994;4.538;2023-06-04T13:31:11;27.60;77.10
18163;DHT22;9206;50.994;4.538;2023-06-04T13:34:04;27.40;78.10
18163;DHT22;9206;50.994;4.538;2023-06-04T13:37:07;27.40;76.10
18163;DHT22;9206;50.994;4.538;2023-06-04T13:40:15;27.60;84.40
18163;DHT22;9206;50.994;4.538;2023-06-04T13:43:12;27.50;76.00
18163;DHT22;9206;50.994;4.538;2023-06-04T13:46:36;27.50;80.20
18163;DHT22;9206;50.994;4.538;2023-06-04T13:49:36;27.60;80.70
18163;DHT22;9206;50.994;4.538;2023-06-04T13:52:54;27.60;75.90
18163;DHT22;9206;50.994;4.538;2023-06-04T13:56:05;27.00;75.50
18163;DHT22;9206;50.994;4.538;2023-06-04T13:58:52;27.50;79.50
18163;DHT22;9206;50.994;4.538;2023-06-04T14:05:16;27.90;80.00
18163;DHT22;9206;50.994;4.538;2023-06-04T14:08:28;28.20;81.70
18163;DHT22;9206;50.994;4.538;2023-06-04T14:11:24;28.10;75.70
18163;DHT22;9206;50.994;4.538;2023-06-04T14:14:12;27.20;75.70
18163;DHT22;9206;50.994;4.538;2023-06-04T14:17:01;27.20;74.90
18163;DHT22;9206;50.994;4.538;2023-06-04T14:19:55;27.20;77.90
18163;DHT22;9206;50.994;4.538;2023-06-04T14:22:44;27.20;78.00
18163;DHT22;9206;50.994;4.538;2023-06-04T14:25:47;27.20;78.10
18163;DHT22;9206;50.994;4.538;2023-06-04T14:28:34;27.30;75.30
18163;DHT22;9206;50.994;4.538;2023-06-04T14:31:25;27.20;76.60
18163;DHT22;9206;50.994;4.538;2023-06-04T14:34:26;26.90;76.80
18163;DHT22;9206;50.994;4.538;2023-06-04T14:37:17;26.60;76.50
18163;DHT22;9206;50.994;4.538;2023-06-04T14:40:10;26.80;78.40
18163;DHT22;9206;50.994;4.538;2023-06-04T14:43:13;27.20;80.40
18163;DHT22;9206;50.994;4.538;2023-06-04T14:46:04;27.60;79.30
18163;DHT22;9206;50.994;4.538;2023-06-04T14:48:59;27.80;79.70
18163;DHT22;9206;50.994;4.538;2023-06-04T14:51:58;27.80;76.50
18163;DHT22;9206;50.994;4.538;2023-06-04T14:55:01;27.30;75.90
18163;DHT22;9206;50.994;4.538;2023-06-04T14:58:26;27.30;78.80
18163;DHT22;9206;50.994;4.538;2023-06-04T15:01:33;27.10;76.50
18163;DHT22;9206;50.994;4.538;2023-06-04T15:17:33;27.30;77.70
18163;DHT22;9206;50.994;4.538;2023-06-04T15:20:37;27.30;77.50
18163;DHT22;9206;50.994;4.538;2023-06-04T15:26:23;26.90;77.20
18163;DHT22;9206;50.994;4.538;2023-06-04T15:29:17;26.90;81.90
18163;DHT22;9206;50.994;4.538;2023-06-04T15:32:10;26.80;79.10
18163;DHT22;9206;50.994;4.538;2023-06-04T15:35:05;26.70;80.30
18163;DHT22;9206;50.994;4.538;2023-06-04T15:37:59;26.60;80.50
18163;DHT22;9206;50.994;4.538;2023-06-04T15:41:02;26.50;79.50
18163;DHT22;9206;50.994;4.538;2023-06-04T15:43:57;26.30;78.40
18163;DHT22;9206;50.994;4.538;2023-06-04T15:46:49;26.30;82.40
18163;DHT22;9206;50.994;4.538;2023-06-04T15:49:43;26.20;78.80
18163;DHT22;9206;50.994;4.538;2023-06-04T15:52:32;25.90;80.30
18163;DHT22;9206;50.994;4.538;2023-06-04T15:55:22;25.90;78.30
18163;DHT22;9206;50.994;4.538;2023-06-04T15:58:24;26.00;80.70
18163;DHT22;9206;50.994;4.538;2023-06-04T16:01:21;25.70;80.50
18163;DHT22;9206;50.994;4.538;2023-06-04T16:04:23;25.70;81.10
18163;DHT22;9206;50.994;4.538;2023-06-04T16:07:12;25.70;79.90
18163;DHT22;9206;50.994;4.538;2023-06-04T16:10:03;25.50;80.40
18163;DHT22;9206;50.994;4.538;2023-06-04T16:12:54;25.30;79.40
18163;DHT22;9206;50.994;4.538;2023-06-04T16:15:42;25.40;81.80
18163;DHT22;9206;50.994;4.538;2023-06-04T16:18:30;25.40;81.10
18163;DHT22;9206;50.994;4.538;2023-06-04T16:21:21;25.30;81.00
18163;DHT22;9206;50.994;4.538;2023-06-04T16:24:12;25.20;83.30
18163;DHT22;9206;50.994;4.538;2023-06-04T16:27:09;25.30;83.10
18163;DHT22;9206;50.994;4.538;2023-06-04T16:29:57;25.20;83.10
18163;DHT22;9206;50.994;4.538;2023-06-04T16:32:45;25.20;83.00
18163;DHT22;9206;50.994;4.538;2023-06-04T16:35:33;25.20;82.40
18163;DHT22;9206;50.994;4.538;2023-06-04T16:38:23;25.20;83.60
18163;DHT22;9206;50.994;4.538;2023-06-04T16:41:12;25.20;83.30
18163;DHT22;9206;50.994;4.538;2023-06-04T16:44:03;25.20;84.00
18163;DHT22;9206;50.994;4.538;2023-06-04T16:46:56;25.30;87.60
18163;DHT22;9206;50.994;4.538;2023-06-04T16:49:50;25.20;83.60
18163;DHT22;9206;50.994;4.538;2023-06-04T16:52:41;25.10;85.00
18163;DHT22;9206;50.994;4.538;2023-06-04T16:55:32;25.00;86.50
18163;DHT22;9206;50.994;4.538;2023-06-04T17:01:27;25.00;83.70
18163;DHT22;9206;50.994;4.538;2023-06-04T17:04:20;25.00;84.80
18163;DHT22;9206;50.994;4.538;2023-06-04T17:07:12;25.00;85.40
18163;DHT22;9206;50.994;4.538;2023-06-04T17:10:14;24.80;85.30
18163;DHT22;9206;50.994;4.538;2023-06-04T17:13:07;24.70;89.10
18163;DHT22;9206;50.994;4.538;2023-06-04T17:16:09;24.70;89.30
18163;DHT22;9206;50.994;4.538;2023-06-04T17:19:02;24.70;85.40
18163;DHT22;9206;50.994;4.538;2023-06-04T17:21:55;24.60;86.40
18163;DHT22;9206;50.994;4.538;2023-06-04T17:24:43;24.50;86.40
18163;DHT22;9206;50.994;4.538;2023-06-04T17:27:46;24.50;88.00
18163;DHT22;9206;50.994;4.538;2023-06-04T17:30:39;24.50;86.90
18163;DHT22;9206;50.994;4.538;2023-06-04T17:33:28;24.40;87.70
18163;DHT22;9206;50.994;4.538;2023-06-04T17:36:19;24.30;86.10
18163;DHT22;9206;50.994;4.538;2023-06-04T17:39:37;24.20;86.50
18163;DHT22;9206;50.994;4.538;2023-06-04T17:42:27;24.20;87.40
18163;DHT22;9206;50.994;4.538;2023-06-04T17:45:19;24.20;89.10
18163;DHT22;9206;50.994;4.538;2023-06-04T17:48:12;24.20;88.60
18163;DHT22;9206;50.994;4.538;2023-06-04T17:51:03;24.20;88.60
18163;DHT22;9206;50.994;4.538;2023-06-04T17:56:25;24.10;87.40
18163;DHT22;9206;50.994;4.538;2023-06-04T17:59:16;24.00;87.40
18163;DHT22;9206;50.994;4.538;2023-06-04T18:02:05;24.00;87.90
18163;DHT22;9206;50.994;4.538;2023-06-04T18:11:18;23.80;88.70
18163;DHT22;9206;50.994;4.538;2023-06-04T18:14:21;23.70;90.20
18163;DHT22;9206;50.994;4.538;2023-06-04T18:17:17;23.70;89.50
18163;DHT22;9206;50.994;4.538;2023-06-04T18:20:10;23.70;90.20
18163;DHT22;9206;50.994;4.538;2023-06-04T18:23:11;23.60;89.90
18163;DHT22;9206;50.994;4.538;2023-06-04T18:26:12;23.60;91.00
18163;DHT22;9206;50.994;4.538;2023-06-04T18:29:01;23.50;90.20
18163;DHT22;9206;50.994;4.538;2023-06-04T18:32:01;23.50;89.90
18163;DHT22;9206;50.994;4.538;2023-06-04T18:34:53;23.40;90.20
18163;DHT22;9206;50.994;4.538;2023-06-04T18:37:42;23.30;89.90
18163;DHT22;9206;50.994;4.538;2023-06-04T18:40:34;23.20;90.10
18163;DHT22;9206;50.994;4.538;2023-06-04T18:43:29;23.10;91.10
18163;DHT22;9206;50.994;4.538;2023-06-04T18:46:21;23.10;90.60
18163;DHT22;9206;50.994;4.538;2023-06-04T18:49:48;23.00;92.20
18163;DHT22;9206;50.994;4.538;2023-06-04T18:53:02;22.80;95.60
18163;DHT22;9206;50.994;4.538;2023-06-04T18:55:50;22.60;97.60
18163;DHT22;9206;50.994;4.538;2023-06-04T18:58:47;22.50;98.70
18163;DHT22;9206;50.994;4.538;2023-06-04T19:01:38;22.30;99.70
18163;DHT22;9206;50.994;4.538;2023-06-04T19:04:30;22.20;99.90
18163;DHT22;9206;50.994;4.538;2023-06-04T19:07:21;22.00;99.90
18163;DHT22;9206;50.994;4.538;2023-06-04T19:10:12;21.90;99.90
18163;DHT22;9206;50.994;4.538;2023-06-04T19:13:04;21.70;99.90
18163;DHT22;9206;50.994;4.538;2023-06-04T19:16:04;21.50;99.90
18163;DHT22;9206;50.994;4.538;2023-06-04T19:18:58;21.40;99.90
18163;DHT22;9206;50.994;4.538;2023-06-04T19:21:54;21.30;99.90
18163;DHT22;9206;50.994;4.538;2023-06-04T19:24:51;21.10;99.90
18163;DHT22;9206;50.994;4.538;2023-06-04T19:27:40;21.00;99.90
18163;DHT22;9206;50.994;4.538;2023-06-04T19:30:34;20.90;99.90
18163;DHT22;9206;50.994;4.538;2023-06-04T19:33:27;20.70;99.90
18163;DHT22;9206;50.994;4.538;2023-06-04T19:36:18;20.60;99.90
18163;DHT22;9206;50.994;4.538;2023-06-04T19:39:09;20.50;99.90
18163;DHT22;9206;50.994;4.538;2023-06-04T19:42:17;20.40;99.90
18163;DHT22;9206;50.994;4.538;2023-06-04T19:47:43;20.20;99.90
18163;DHT22;9206;50.994;4.538;2023-06-04T19:50:33;20.10;99.90
18163;DHT22;9206;50.994;4.538;2023-06-04T19:53:26;20.00;99.90
18163;DHT22;9206;50.994;4.538;2023-06-04T19:56:16;19.80;99.90
18163;DHT22;9206;50.994;4.538;2023-06-04T19:59:18;19.80;99.90
18163;DHT22;9206;50.994;4.538;2023-06-04T20:02:11;19.70;99.90
18163;DHT22;9206;50.994;4.538;2023-06-04T20:05:00;19.60;99.90
18163;DHT22;9206;50.994;4.538;2023-06-04T20:08:20;19.50;99.90
18163;DHT22;9206;50.994;4.538;2023-06-04T20:11:02;19.40;99.90
18163;DHT22;9206;50.994;4.538;2023-06-04T20:13:50;19.30;99.90
18163;DHT22;9206;50.994;4.538;2023-06-04T20:16:38;19.20;99.90
18163;DHT22;9206;50.994;4.538;2023-06-04T20:19:30;19.20;99.90
18163;DHT22;9206;50.994;4.538;2023-06-04T20:22:17;19.10;99.90
18163;DHT22;9206;50.994;4.538;2023-06-04T20:25:09;19.00;99.90
18163;DHT22;9206;50.994;4.538;2023-06-04T20:28:00;18.80;99.90